Station: Point Perpendicular  

  Atmospheric Gas Attenuation - ITU Rec 676-11   ----------------- dB/100km -----------------
Date Time Temp RH % AH g/m3 Dew Point Wind Direction Speed kph Gust kph Barometer mB Rainfall Since 9am 24GHz 47GHz 76GHz 122GHz 134GHz 241GHz
08/05 12:30 17.8 44 6.68 5.4 11 20 1015.1 0 15.3 22.0 30.9 80.7 70.4 240.9
08/05 12:20 17.9 47 7.18 6.4 13 20 1014.9 0 16.4 22.7 32.6 85.3 76.2 261.2
08/05 12:10 17.6 46 6.9 5.9 17 32 1014.9 0 15.8 22.3 31.7 83.0 73.2 250.5
08/05 12:00 17.5 47 7.01 6.1 15 37 1015.1 0 16.1 22.5 32.2 84.1 74.6 255.5
08/05 11:50 17.6 45 6.75 5.5 9 19 1015.1 0 15.5 22.1 31.2 81.5 71.4 244.4
08/05 11:40 17.4 48 7.11 6.3 11 15 1015.4 0 16.3 22.7 32.6 85.2 75.9 260.0
08/05 11:30 17.1 44 6.4 4.8 13 28 1015.4 0 14.8 21.8 30.2 78.8 67.8 231.6
08/05 11:20 17.1 45 6.55 5.1 9 15 1015.6 0 15.1 22.0 30.7 80.2 69.5 237.8
08/05 11:10 17 47 6.8 5.6 11 19 1015.6 0 15.6 22.4 31.6 82.7 72.6 248.4
08/05 11:00 16.9 48 6.9 5.8 15 30 1015.8 0 15.8 22.5 32.0 83.8 73.9 252.9
08/05 10:50 16.5 47 6.6 5.2 13 19 1015.8 0 15.2 22.2 31.1 81.3 70.7 241.6
08/05 10:40 16.4 47 6.56 5.1 13 19 1015.6 0 15.1 22.2 31.0 81.0 70.3 240.2
08/05 10:30 16.2 47 6.48 4.9 13 30 1015.6 0 15.0 22.1 30.8 80.4 69.5 237.5
08/05 10:20 16 49 6.68 5.3 11 20 1015.5 0 15.4 22.4 31.6 82.5 72.1 246.4
08/05 10:10 15.7 51 6.82 5.6 11 15 1015.6 0 15.7 22.7 32.2 84.2 74.0 253.3
08/05 10:00 15.3 51 6.66 5.2 13 22 1015.7 0 15.4 22.6 31.8 83.1 72.5 247.8
08/05 09:50 15.3 53 6.92 5.8 9 15 1015.7 0 15.9 23.0 32.8 85.6 75.6 258.8
08/05 09:40 14.9 52 6.63 5.1 11 15 1015.8 0 15.3 22.6 31.9 83.2 72.5 247.7
08/05 09:30 14.7 55 6.92 5.8 11 20 1015.7 0 16.0 23.1 33.0 86.3 76.2 260.7
08/05 09:20 14.3 55 6.76 5.4 13 19 1015.7 0 15.6 23.0 32.6 85.1 74.6 255.1
08/05 09:10 14 56 6.75 5.4 13 19 1015.8 0 15.6 23.0 32.7 85.3 74.8 255.7
08/05 09:00 14 59 7.12 6.1 13 22 1015.8 0 16.4 23.6 34.0 89.0 79.4 271.8
08/05 08:50 13.8 58 6.91 5.7 13 22 1015.8 0.4 16.0 23.3 33.3 87.1 76.9 263.3
08/05 08:40 13.6 55 6.47 4.7 15 22 1015.6 0.4 15.1 22.7 31.8 82.9 71.7 244.8
08/05 08:30 13.5 57 6.67 5.2 11 19 1015.7 0.4 15.5 23.0 32.6 85.1 74.2 253.8
08/05 08:20 13.5 57 6.67 5.2 11 19 1015.8 0.4 15.5 23.0 32.6 85.1 74.3 253.8
08/05 08:10 13.1 57 6.5 4.8 13 17 1015.9 0.4 15.1 22.9 32.1 83.8 72.5 247.7
08/05 08:00 12.8 60 6.72 5.2 11 24 1015.8 0.4 15.6 23.3 33.0 86.3 75.5 258.2
08/05 07:50 12.4 60 6.56 4.9 13 19 1015.6 0.4 15.3 23.2 32.6 85.1 73.9 252.5
08/05 07:40 12.3 59 6.41 4.5 15 22 1015.4 0.4 15.0 22.9 32.0 83.7 72.1 246.2
08/05 07:30 12.3 61 6.62 5 17 30 1015.4 0.4 15.4 23.3 32.8 85.8 74.7 255.4
08/05 07:20 12.1 61 6.54 4.8 13 19 1015.3 0.4 15.3 23.2 32.6 85.2 73.9 252.5
08/05 07:10 12.1 61 6.54 4.8 13 19 1015.2 0.4 15.3 23.2 32.6 85.2 73.9 252.5
08/05 07:00 11.8 61 6.42 4.5 13 22 1015.1 0.4 15.0 23.1 32.3 84.3 72.7 248.1
08/05 06:50 11.8 62 6.53 4.8 11 15 1015.1 0.4 15.3 23.2 32.7 85.4 74.1 252.9
08/05 06:40 11.7 61 6.38 4.4 15 20 1015.1 0.4 14.9 23.0 32.2 84.0 72.3 246.7
08/05 06:30 11.7 61 6.38 4.4 13 22 1015.2 0.4 14.9 23.0 32.2 84.0 72.3 246.7
08/05 06:20 11.6 60 6.24 4.1 19 28 1014.9 0.4 14.6 22.8 31.7 82.7 70.6 240.8
08/05 06:10 11.4 60 6.16 3.9 13 19 1014.8 0.4 14.5 22.8 31.4 82.0 69.8 237.9
08/05 06:00 11.5 60 6.2 4 13 24 1015 0.4 14.6 22.8 31.6 82.4 70.2 239.4
08/05 05:50 11.4 59 6.06 3.7 15 22 1014.8 0.4 14.3 22.6 31.1 81.0 68.5 233.5
08/05 05:40 11.5 62 6.4 4.5 13 19 1014.8 0.4 15.0 23.1 32.3 84.4 72.7 248.1
08/05 05:30 11.3 59 6.02 3.6 13 24 1015.1 0.4 14.2 22.6 31.0 80.8 68.2 232.1
08/05 05:20 11.2 59 5.98 3.5 11 17 1015.1 0.4 14.1 22.6 30.8 80.5 67.7 230.7
08/05 05:10 11.2 58 5.88 3.3 11 15 1015.1 0.4 13.9 22.4 30.5 79.5 66.5 226.4
08/05 05:00 11.2 58 5.88 3.3 13 28 1015.2 0.4 13.9 22.4 30.5 79.5 66.5 226.4
08/05 04:50 11.2 58 5.88 3.3 17 20 1015.1 0.4 13.9 22.4 30.5 79.5 66.5 226.4
08/05 04:40 11.3 61 6.22 4.1 13 19 1015.3 0.4 14.6 22.9 31.7 82.8 70.7 240.9
08/05 04:30 11.2 57 5.78 3 13 26 1015.3 0.4 13.7 22.3 30.1 78.5 65.3 222.1
08/05 04:20 11.2 58 5.88 3.3 11 15 1015.2 0.4 13.9 22.4 30.5 79.5 66.5 226.4
08/05 04:10 11.3 56 5.71 2.9 13 19 1015.1 0.4 13.5 22.1 29.8 77.7 64.3 218.8
08/05 04:00 11.2 56 5.68 2.8 13 20 1015.2 0.4 13.5 22.1 29.7 77.5 64.1 217.8
08/05 03:50 11.1 56 5.64 2.7 13 19 1015.3 0.4 13.4 22.1 29.6 77.2 63.7 216.3
08/05 03:40 11 57 5.71 2.8 15 20 1015.6 0.4 13.5 22.2 29.9 78.0 64.6 219.7
08/05 03:30 11 62 6.21 4 11 20 1015.5 0.4 14.6 23.0 31.8 83.0 70.8 241.4
08/05 03:20 10.8 58 5.73 2.9 11 17 1015.4 0.4 13.6 22.3 30.1 78.4 65.0 221.0
08/05 03:10 10.8 58 5.73 2.9 13 22 1015.6 0.4 13.6 22.3 30.1 78.4 65.0 221.1
08/05 03:00 10.8 58 5.73 2.9 13 26 1015.5 0.4 13.6 22.3 30.1 78.4 65.0 221.1
08/05 02:50 10.9 55 5.47 2.2 13 19 1015.9 0.4 13.0 21.9 29.1 75.8 61.8 209.7
08/05 02:40 10.9 55 5.47 2.2 13 22 1015.9 0.4 13.0 21.9 29.1 75.8 61.8 209.7
08/05 02:30 10.8 56 5.54 2.4 13 22 1016.1 0.4 13.2 22.0 29.4 76.6 62.7 213.0
08/05 02:20 10.8 55 5.44 2.1 9 15 1016.2 0.4 13.0 21.9 29.0 75.6 61.5 208.7
08/05 02:10 10.8 55 5.44 2.1 15 19 1016.4 0.4 13.0 21.9 29.0 75.6 61.5 208.8
08/05 02:00 10.7 55 5.4 2 13 20 1016.6 0.4 12.9 21.9 28.9 75.3 61.1 207.3
08/05 01:50 10.8 52 5.14 1.4 9 13 1016.6 0.4 12.3 21.4 27.9 72.7 57.9 196.0
08/05 01:40 10.8 52 5.14 1.4 9 17 1016.8 0.4 12.3 21.5 28.0 72.7 57.9 196.1
08/05 01:30 10.8 51 5.04 1.1 11 26 1016.6 0.4 12.1 21.3 27.6 71.7 56.7 191.8
08/05 01:20 10.9 52 5.17 1.4 11 20 1016.9 0.4 12.4 21.5 28.0 72.9 58.2 197.1
08/05 01:10 10.8 53 5.24 1.6 11 15 1016.9 0.4 12.5 21.6 28.3 73.7 59.1 200.3
08/05 01:00 10.8 53 5.24 1.6 7 15 1017 0.4 12.5 21.6 28.3 73.7 59.1 200.3
08/05 00:50 10.9 52 5.17 1.4 7 17 1017.2 0.4 12.4 21.5 28.0 72.9 58.2 197.2
08/05 00:40 10.9 53 5.27 1.7 9 13 1017.2 0.4 12.6 21.6 28.4 73.9 59.4 201.4
08/05 00:20 11 54 5.41 2.1 11 17 1017.2 0.4 12.9 21.8 28.9 75.2 61.0 207.1
08/05 00:10 11 52 5.21 1.5 9 17 1017.4 0.4 12.5 21.5 28.2 73.3 58.6 198.7
08/05 00:00 11.1 52 5.24 1.6 11 28 1017.6 0.4 12.5 21.6 28.2 73.5 58.9 199.7
07/05 23:50 11 53 5.31 1.8 9 17 1017.7 0.4 12.7 21.7 28.5 74.3 59.9 202.9
07/05 23:40 11.1 53 5.34 1.9 11 17 1017.7 0.4 12.8 21.7 28.6 74.5 60.2 204.0
07/05 23:30 11.2 52 5.27 1.7 9 20 1017.7 0.4 12.6 21.6 28.3 73.7 59.2 200.7
07/05 23:20 11.1 53 5.34 1.9 7 17 1017.9 0.4 12.8 21.7 28.6 74.5 60.2 204.0
07/05 23:10 11.3 54 5.51 2.3 9 19 1017.6 0.4 13.1 21.9 29.2 75.9 62.1 210.7
07/05 23:00 11.3 54 5.51 2.3 9 19 1017.7 0.4 13.1 21.9 29.2 75.9 62.1 210.7
07/05 22:50 11.4 52 5.34 1.9 9 17 1017.6 0.4 12.7 21.6 28.5 74.2 59.9 203.2
07/05 22:40 11.6 54 5.61 2.6 7 13 1017.9 0.4 13.3 22.0 29.4 76.7 63.0 214.2
07/05 22:30 11.7 54 5.65 2.7 13 26 1017.6 0.4 13.4 22.0 29.5 76.9 63.4 215.6
07/05 22:20 11.8 55 5.79 3.1 20 33 1017.8 0.4 13.7 22.2 30.0 78.2 65.1 221.3
07/05 22:10 11.6 51 5.3 1.8 17 26 1017.9 0.4 12.6 21.5 28.3 73.6 59.3 201.1
07/05 22:00 11.9 51 5.4 2.1 17 33 1017.5 0.4 12.9 21.6 28.5 74.3 60.3 204.4
07/05 21:50 12 51 5.44 2.2 17 30 1017.5 0.4 12.9 21.6 28.7 74.6 60.7 205.9
07/05 21:40 11.9 52 5.51 2.4 15 30 1017.5 0.4 13.1 21.8 28.9 75.4 61.6 209.1
07/05 21:30 12 53 5.65 2.7 15 30 1017.7 0.4 13.4 22.0 29.4 76.6 63.2 214.8
07/05 21:20 11.9 50 5.3 1.8 11 20 1017.7 0.4 12.6 21.5 28.2 73.3 59.1 200.3
07/05 21:10 11.8 49 5.16 1.4 9 13 1017.8 0.4 12.3 21.3 27.7 72.1 57.5 194.7
07/05 21:00 11.9 50 5.3 1.8 11 22 1017.7 0.4 12.6 21.5 28.2 73.3 59.1 200.3
07/05 20:50 11.9 48 5.08 1.3 11 17 1017.5 0.4 12.2 21.1 27.4 71.2 56.4 191.1
07/05 20:40 12.1 52 5.58 2.6 11 17 1017.3 0.4 13.2 21.8 29.1 75.8 62.3 211.5
07/05 20:30 12.3 49 5.32 1.9 11 22 1017.3 0.4 12.7 21.4 28.1 73.1 59.0 200.1
07/05 20:20 12.3 49 5.32 1.9 13 20 1017.2 0.4 12.7 21.4 28.1 73.1 59.0 200.0
07/05 20:10 12.3 47 5.1 1.3 11 19 1017 0.4 12.2 21.1 27.3 71.0 56.4 190.9
07/05 20:00 12.4 43 4.7 0.2 11 24 1017.1 0.4 11.4 20.5 25.9 67.1 51.6 174.2
07/05 19:50 12.7 45 5.01 1.1 13 19 1017.2 0.4 12.0 20.8 26.9 69.8 55.1 186.3

Last Refresh: 08-May-2026 12:08:52

Bureau of Meteorology